createdAt,value
2019-02-25T00:00:47.802Z,57.59
2019-02-25T00:01:47.802Z,57.48
2019-02-25T00:02:47.783Z,57.69
2019-02-25T00:03:47.771Z,56.03
2019-02-25T00:04:47.773Z,56.86
2019-02-25T00:05:47.749Z,56.86
2019-02-25T00:06:47.746Z,56.76
2019-02-25T00:07:47.740Z,56.76
2019-02-25T00:08:47.715Z,57.17
2019-02-25T00:09:47.705Z,57.69
2019-02-25T00:10:47.693Z,57.90
2019-02-25T00:11:47.687Z,57.69
2019-02-25T00:12:47.671Z,58.96
2019-02-25T00:13:47.674Z,58.73
2019-02-25T00:14:47.654Z,58.86
2019-02-25T00:15:47.642Z,59.38
2019-02-25T00:16:47.629Z,59.17
2019-02-25T00:17:47.621Z,60.00
2019-02-25T00:18:47.606Z,59.69
2019-02-25T00:19:47.607Z,60.31
2019-02-25T00:20:47.585Z,60.31
2019-02-25T00:21:47.578Z,60.10
2019-02-25T00:22:47.562Z,60.52
2019-02-25T00:23:47.554Z,60.44
2019-02-25T00:24:47.541Z,60.72
2019-02-25T00:25:47.542Z,59.58
2019-02-25T00:26:47.520Z,60.72
2019-02-25T00:27:47.516Z,60.21
2019-02-25T00:28:47.499Z,60.00
2019-02-25T00:29:47.487Z,59.82
2019-02-25T00:30:47.490Z,59.69
2019-02-25T00:31:47.532Z,59.50
2019-02-25T00:32:47.454Z,59.61
2019-02-25T00:33:47.443Z,60.34
2019-02-25T00:34:47.432Z,59.61
2019-02-25T00:35:47.424Z,59.82
2019-02-25T00:36:47.415Z,59.61
2019-02-25T00:37:47.410Z,59.19
2019-02-25T00:38:47.389Z,58.98
2019-02-25T00:39:47.381Z,58.88
2019-02-25T00:40:47.381Z,58.98
2019-02-25T00:41:47.358Z,59.30
2019-02-25T00:42:47.348Z,59.19
2019-02-25T00:43:47.347Z,59.48
2019-02-25T00:44:47.325Z,59.71
2019-02-25T00:45:47.317Z,59.50
2019-02-25T00:46:47.304Z,59.79
2019-02-25T00:47:47.293Z,58.98
2019-02-25T00:48:47.283Z,58.47
2019-02-25T00:49:47.293Z,57.53
2019-02-25T00:50:47.261Z,59.71
2019-02-25T00:51:47.250Z,59.82
2019-02-25T00:52:47.239Z,59.82
2019-02-25T00:53:47.228Z,58.88
2019-02-25T00:54:47.220Z,58.15
2019-02-25T00:55:47.232Z,57.84
2019-02-25T00:56:47.196Z,57.74
2019-02-25T00:57:47.185Z,58.50
2019-02-25T00:58:47.177Z,59.01
2019-02-25T00:59:47.170Z,58.18
2019-02-25T01:00:47.153Z,57.56
2019-02-25T01:01:47.156Z,58.08
2019-02-25T01:02:47.132Z,58.18
2019-02-25T01:03:47.121Z,59.22
2019-02-25T01:04:47.109Z,59.25
2019-02-25T01:05:47.099Z,58.60
2019-02-25T01:06:47.089Z,59.25
2019-02-25T01:07:47.089Z,58.91
2019-02-25T01:08:47.067Z,59.66
2019-02-25T01:09:47.058Z,59.77
2019-02-25T01:10:47.048Z,59.98
2019-02-25T01:11:47.036Z,59.43
2019-02-25T01:12:47.026Z,59.74
2019-02-25T01:13:47.026Z,59.98
2019-02-25T01:14:47.004Z,59.12
2019-02-25T01:15:46.994Z,59.35
2019-02-25T01:16:46.983Z,59.25
2019-02-25T01:17:46.973Z,59.04
2019-02-25T01:18:46.963Z,59.25
2019-02-25T01:19:46.962Z,58.94
2019-02-25T01:20:46.941Z,59.77
2019-02-25T01:21:46.944Z,59.14
2019-02-25T01:22:46.919Z,59.35
2019-02-25T01:23:48.875Z,59.66
2019-02-25T01:24:46.899Z,60.39
2019-02-25T01:25:46.910Z,60.50
2019-02-25T01:26:46.878Z,60.52
2019-02-25T01:27:46.874Z,60.21
2019-02-25T01:28:46.857Z,60.94
2019-02-25T01:29:46.849Z,61.04
2019-02-25T01:30:46.839Z,60.21
2019-02-25T01:31:46.837Z,60.21
2019-02-25T01:32:46.815Z,60.29
2019-02-25T01:33:46.805Z,60.21
2019-02-25T01:34:46.794Z,60.11
2019-02-25T01:35:46.784Z,60.91
2019-02-25T01:36:46.774Z,60.81
2019-02-25T01:37:46.780Z,60.52
2019-02-25T01:38:46.754Z,61.04
2019-02-25T01:39:46.742Z,60.94
2019-02-25T01:40:46.733Z,61.57
2019-02-25T01:41:46.722Z,61.98
2019-02-25T01:42:46.712Z,62.29
2019-02-25T01:43:46.713Z,62.19
2019-02-25T01:44:46.693Z,62.22
2019-02-25T01:45:46.680Z,62.40
2019-02-25T01:46:46.670Z,62.71
2019-02-25T01:47:46.662Z,62.50
2019-02-25T01:48:46.649Z,62.50
2019-02-25T01:49:46.652Z,62.63
2019-02-25T01:50:46.631Z,62.53
2019-02-25T01:51:46.622Z,62.50
2019-02-25T01:52:46.609Z,62.81
2019-02-25T01:53:46.597Z,62.74
2019-02-25T01:54:46.591Z,62.74
2019-02-25T01:55:46.588Z,63.15
2019-02-25T01:56:46.566Z,62.74
2019-02-25T01:57:46.555Z,62.53
2019-02-25T01:58:46.547Z,63.05
2019-02-25T01:59:46.534Z,62.84
2019-02-25T02:00:46.527Z,62.43
2019-02-25T02:01:46.524Z,62.74
2019-02-25T02:02:46.502Z,62.32
2019-02-25T02:03:46.493Z,62.84
2019-02-25T02:04:46.487Z,62.63
2019-02-25T02:05:46.473Z,62.71
2019-02-25T02:06:46.460Z,62.08
2019-02-25T02:07:46.460Z,62.08
2019-02-25T02:08:46.442Z,61.88
2019-02-25T02:09:46.430Z,62.40
2019-02-25T02:10:46.419Z,61.98
2019-02-25T02:11:46.409Z,61.46
2019-02-25T02:12:46.402Z,61.57
2019-02-25T02:13:46.402Z,61.28
2019-02-25T02:14:46.377Z,61.59
2019-02-25T02:15:46.371Z,61.49
2019-02-25T02:16:46.357Z,61.80
2019-02-25T02:17:46.353Z,62.76
2019-02-25T02:18:46.336Z,62.87
2019-02-25T02:19:46.337Z,62.66
2019-02-25T02:20:46.315Z,62.66
2019-02-25T02:21:46.304Z,63.18
2019-02-25T02:22:46.344Z,62.87
2019-02-25T02:23:46.286Z,62.98
2019-02-25T02:24:46.273Z,63.60
2019-02-25T02:25:46.275Z,63.70
2019-02-25T02:26:46.254Z,64.25
2019-02-25T02:27:46.242Z,64.15
2019-02-25T02:28:46.232Z,64.56
2019-02-25T02:29:46.225Z,65.01
2019-02-25T02:30:46.212Z,65.11
2019-02-25T02:31:46.309Z,65.84
2019-02-25T02:32:46.191Z,64.90
2019-02-25T02:33:46.190Z,65.56
2019-02-25T02:34:46.173Z,65.25
2019-02-25T02:35:46.174Z,66.29
2019-02-25T02:36:46.149Z,65.17
2019-02-25T02:37:46.154Z,66.19
2019-02-25T02:38:46.129Z,64.94
2019-02-25T02:39:46.117Z,65.77
2019-02-25T02:40:46.106Z,65.46
2019-02-25T02:41:46.096Z,65.04
2019-02-25T02:42:46.088Z,64.73
2019-02-25T02:43:46.091Z,65.22
2019-02-25T02:44:46.065Z,65.33
2019-02-25T02:45:46.053Z,65.33
2019-02-25T02:46:46.042Z,65.11
2019-02-25T02:47:46.036Z,65.53
2019-02-25T02:48:46.024Z,65.33
2019-02-25T02:49:46.024Z,65.33
2019-02-25T02:50:45.999Z,65.53
2019-02-25T02:51:45.989Z,65.74
2019-02-25T02:52:45.991Z,65.74
2019-02-25T02:53:45.968Z,65.64
2019-02-25T02:54:45.981Z,65.11
2019-02-25T02:55:45.959Z,64.39
2019-02-25T02:56:45.936Z,64.67
2019-02-25T02:57:45.925Z,64.90
2019-02-25T02:58:45.915Z,64.77
2019-02-25T02:59:45.914Z,65.01
2019-02-25T03:00:45.895Z,64.98
2019-02-25T03:01:45.892Z,64.80
2019-02-25T03:02:45.871Z,65.01
2019-02-25T03:03:45.859Z,65.84
2019-02-25T03:04:45.850Z,65.53
2019-02-25T03:05:45.838Z,65.53
2019-02-25T03:06:45.835Z,65.33
2019-02-25T03:07:45.833Z,65.33
2019-02-25T03:08:45.807Z,66.16
2019-02-25T03:09:45.795Z,66.16
2019-02-25T03:10:45.784Z,66.16
2019-02-25T03:11:45.779Z,66.05
2019-02-25T03:12:45.764Z,66.29
2019-02-25T03:13:45.765Z,65.43
2019-02-25T03:14:45.741Z,65.43
2019-02-25T03:15:45.731Z,65.33
2019-02-25T03:16:45.721Z,65.11
2019-02-25T03:17:45.710Z,66.47
2019-02-25T03:18:45.702Z,66.47
2019-02-25T03:19:45.700Z,67.61
2019-02-25T03:20:45.677Z,66.99
2019-02-25T03:21:45.671Z,66.89
2019-02-25T03:22:45.657Z,66.68
2019-02-25T03:23:45.646Z,66.68
2019-02-25T03:24:45.638Z,67.30
2019-02-25T03:25:45.633Z,67.30
2019-02-25T03:26:45.615Z,68.30
2019-02-25T03:27:45.601Z,69.45
2019-02-25T03:28:45.594Z,69.66
2019-02-25T03:29:45.581Z,69.24
2019-02-25T03:30:45.588Z,69.56
2019-02-25T03:31:45.587Z,69.97
2019-02-25T03:32:45.550Z,70.39
2019-02-25T03:33:45.542Z,70.18
2019-02-25T03:34:45.529Z,70.07
2019-02-25T03:35:45.518Z,69.87
2019-02-25T03:36:45.507Z,70.07
2019-02-25T03:37:45.508Z,70.28
2019-02-25T03:38:45.485Z,70.18
2019-02-25T03:39:45.474Z,70.39
2019-02-25T03:40:45.464Z,70.18
2019-02-25T03:41:45.457Z,69.76
2019-02-25T03:42:45.443Z,69.87
2019-02-25T03:43:45.443Z,69.45
2019-02-25T03:44:45.424Z,68.41
2019-02-25T03:45:45.412Z,68.93
2019-02-25T03:46:45.408Z,69.21
2019-02-25T03:47:45.390Z,69.42
2019-02-25T03:48:45.384Z,69.31
2019-02-25T03:49:45.391Z,69.21
2019-02-25T03:50:45.358Z,69.13
2019-02-25T03:51:45.354Z,69.66
2019-02-25T03:52:45.337Z,69.59
2019-02-25T03:53:45.329Z,70.45
2019-02-25T03:54:45.318Z,69.51
2019-02-25T03:55:45.316Z,69.10
2019-02-25T03:56:45.297Z,68.57
2019-02-25T03:57:45.296Z,69.72
2019-02-25T03:58:45.275Z,69.51
2019-02-25T03:59:45.266Z,69.41
2019-02-25T04:00:45.257Z,69.41
2019-02-25T04:01:45.256Z,69.17
2019-02-25T04:02:45.233Z,69.38
2019-02-25T04:03:45.225Z,69.59
2019-02-25T04:04:45.212Z,69.59
2019-02-25T04:05:45.203Z,69.27
2019-02-25T04:06:45.195Z,69.69
2019-02-25T04:07:45.191Z,69.27
2019-02-25T04:08:45.171Z,69.59
2019-02-25T04:09:45.162Z,69.24
2019-02-25T04:10:45.153Z,69.38
2019-02-25T04:11:45.138Z,70.11
2019-02-25T04:12:45.144Z,70.28
2019-02-25T04:13:45.128Z,70.07
2019-02-25T04:14:45.108Z,69.48
2019-02-25T04:15:45.121Z,69.56
2019-02-25T04:16:45.088Z,69.24
2019-02-25T04:17:45.075Z,68.96
2019-02-25T04:18:45.065Z,68.65
2019-02-25T04:19:45.065Z,69.48
2019-02-25T04:20:45.050Z,68.44
2019-02-25T04:21:45.033Z,69.69
2019-02-25T04:22:45.024Z,70.00
2019-02-25T04:23:45.014Z,70.42
2019-02-25T04:24:45.010Z,70.84
2019-02-25T04:25:45.001Z,70.73
2019-02-25T04:26:44.984Z,69.17
2019-02-25T04:27:44.971Z,69.27
2019-02-25T04:28:44.960Z,69.59
2019-02-25T04:29:44.951Z,70.21
2019-02-25T04:30:44.940Z,69.69
2019-02-25T04:31:44.940Z,69.69
2019-02-25T04:32:44.919Z,69.38
2019-02-25T04:33:44.912Z,69.48
2019-02-25T04:34:44.897Z,70.11
2019-02-25T04:35:44.887Z,70.63
2019-02-25T04:36:44.876Z,70.53
2019-02-25T04:37:44.877Z,70.63
2019-02-25T04:38:44.860Z,70.53
2019-02-25T04:39:44.846Z,70.94
2019-02-25T04:40:44.835Z,70.73
2019-02-25T04:41:44.824Z,70.53
2019-02-25T04:42:44.835Z,70.32
2019-02-25T04:43:44.820Z,70.21
2019-02-25T04:44:44.794Z,70.32
2019-02-25T04:45:44.782Z,69.79
2019-02-25T04:46:44.772Z,70.53
2019-02-25T04:47:44.772Z,70.53
2019-02-25T04:48:44.751Z,70.32
2019-02-25T04:49:44.750Z,70.94
2019-02-25T04:50:44.730Z,70.73
2019-02-25T04:51:44.720Z,70.63
2019-02-25T04:52:44.709Z,70.53
2019-02-25T04:53:44.700Z,70.53
2019-02-25T04:54:44.689Z,70.84
2019-02-25T04:55:44.692Z,70.00
2019-02-25T04:56:44.680Z,70.84
2019-02-25T04:57:44.658Z,70.00
2019-02-25T04:58:44.648Z,69.48
2019-02-25T04:59:44.639Z,69.59
2019-02-25T05:00:44.627Z,68.75
2019-02-25T05:01:44.626Z,68.33
2019-02-25T05:02:44.609Z,68.23
2019-02-25T05:03:44.596Z,67.71
2019-02-25T05:04:44.585Z,68.54
2019-02-25T05:05:44.575Z,69.27
2019-02-25T05:06:44.564Z,69.17
2019-02-25T05:07:44.566Z,69.69
2019-02-25T05:08:44.543Z,69.48
2019-02-25T05:09:44.532Z,68.44
2019-02-25T05:10:44.521Z,68.02
2019-02-25T05:11:44.514Z,66.98
2019-02-25T05:12:44.500Z,67.50
2019-02-25T05:13:44.502Z,67.81
2019-02-25T05:14:44.479Z,67.08
2019-02-25T05:15:44.469Z,67.29
2019-02-25T05:16:44.459Z,66.88
2019-02-25T05:17:44.469Z,67.53
2019-02-25T05:18:44.442Z,67.95
2019-02-25T05:19:44.437Z,68.05
2019-02-25T05:20:44.416Z,68.16
2019-02-25T05:21:44.406Z,68.99
2019-02-25T05:22:44.395Z,68.89
2019-02-25T05:23:44.388Z,68.78
2019-02-25T05:24:44.375Z,68.68
2019-02-25T05:25:44.376Z,68.78
2019-02-25T05:26:44.366Z,69.31
2019-02-25T05:27:44.353Z,68.78
2019-02-25T05:28:44.332Z,68.78
2019-02-25T05:29:44.347Z,68.37
2019-02-25T05:30:44.312Z,68.57
2019-02-25T05:31:44.323Z,69.41
2019-02-25T05:32:44.297Z,69.41
2019-02-25T05:33:44.281Z,68.99
2019-02-25T05:34:44.270Z,68.99
2019-02-25T05:35:44.268Z,68.89
2019-02-25T05:36:44.249Z,68.68
2019-02-25T05:37:44.255Z,68.57
2019-02-25T05:38:44.230Z,68.78
2019-02-25T05:39:44.220Z,68.47
2019-02-25T05:40:44.210Z,68.89
2019-02-25T05:41:44.197Z,69.48
2019-02-25T05:42:44.189Z,68.57
2019-02-25T05:43:44.187Z,68.75
2019-02-25T05:44:44.170Z,69.72
2019-02-25T05:45:44.155Z,68.78
2019-02-25T05:46:44.145Z,69.62
2019-02-25T05:47:44.135Z,68.99
2019-02-25T05:48:44.127Z,69.69
2019-02-25T05:49:44.123Z,69.93
2019-02-25T05:50:44.103Z,70.45
2019-02-25T05:51:44.138Z,69.93
2019-02-25T05:52:44.081Z,69.82
2019-02-25T05:53:44.074Z,70.04
2019-02-25T05:54:44.061Z,69.93
2019-02-25T05:55:44.063Z,69.82
2019-02-25T05:56:44.040Z,69.59
2019-02-25T05:57:44.031Z,69.72
2019-02-25T05:58:44.034Z,69.69
2019-02-25T05:59:44.013Z,69.48
2019-02-25T06:00:43.999Z,69.31
2019-02-25T06:01:44.000Z,69.41
2019-02-25T06:02:43.977Z,69.62
2019-02-25T06:03:43.968Z,69.59
2019-02-25T06:04:43.956Z,69.93
2019-02-25T06:05:43.946Z,69.82
2019-02-25T06:06:43.946Z,70.35
2019-02-25T06:07:43.938Z,70.66
2019-02-25T06:08:43.914Z,70.38
2019-02-25T06:09:43.908Z,70.70
2019-02-25T06:10:43.893Z,71.32
2019-02-25T06:11:43.883Z,71.42
2019-02-25T06:12:43.872Z,71.84
2019-02-25T06:13:43.873Z,71.56
2019-02-25T06:14:43.852Z,71.32
2019-02-25T06:15:43.842Z,71.32
2019-02-25T06:16:43.831Z,71.53
2019-02-25T06:17:43.821Z,71.22
2019-02-25T06:18:43.811Z,71.22
2019-02-25T06:19:43.810Z,71.64
2019-02-25T06:20:43.799Z,71.32
2019-02-25T06:21:43.779Z,71.32
2019-02-25T06:22:43.770Z,71.42
2019-02-25T06:23:43.758Z,71.08
2019-02-25T06:24:43.747Z,71.32
2019-02-25T06:25:43.748Z,71.29
2019-02-25T06:26:43.728Z,71.29
2019-02-25T06:27:43.715Z,71.19
2019-02-25T06:28:43.792Z,71.39
2019-02-25T06:29:43.695Z,71.42
2019-02-25T06:30:43.684Z,71.53
2019-02-25T06:31:43.727Z,71.53
2019-02-25T06:32:43.663Z,72.05
2019-02-25T06:33:43.653Z,72.26
2019-02-25T06:34:43.642Z,72.16
2019-02-25T06:35:43.632Z,72.26
2019-02-25T06:36:43.644Z,72.16
2019-02-25T06:37:43.646Z,72.16
2019-02-25T06:38:43.600Z,71.95
2019-02-25T06:39:43.599Z,72.26
2019-02-25T06:40:43.579Z,72.16
2019-02-25T06:41:43.568Z,72.13
2019-02-25T06:42:43.558Z,71.70
2019-02-25T06:43:43.558Z,72.16
2019-02-25T06:44:43.537Z,71.32
2019-02-25T06:45:43.527Z,71.60
2019-02-25T06:46:43.516Z,71.60
2019-02-25T06:47:43.506Z,71.08
2019-02-25T06:48:43.495Z,71.64
2019-02-25T06:49:43.504Z,71.11
2019-02-25T06:50:43.474Z,70.80
2019-02-25T06:51:43.467Z,71.22
2019-02-25T06:52:43.453Z,71.32
2019-02-25T06:53:43.443Z,71.32
2019-02-25T06:54:43.433Z,71.95
2019-02-25T06:55:43.433Z,71.22
2019-02-25T06:56:43.411Z,71.32
2019-02-25T06:57:43.401Z,71.42
2019-02-25T06:58:43.394Z,70.98
2019-02-25T06:59:43.381Z,70.98
2019-02-25T07:00:43.370Z,71.08
2019-02-25T07:01:43.370Z,70.45
2019-02-25T07:02:43.352Z,70.76
2019-02-25T07:03:43.742Z,71.29
2019-02-25T07:04:43.328Z,70.35
2019-02-25T07:05:43.317Z,70.66
2019-02-25T07:06:43.306Z,71.08
2019-02-25T07:07:43.307Z,71.04
2019-02-25T07:08:43.287Z,70.98
2019-02-25T07:09:43.275Z,70.21
2019-02-25T07:10:43.263Z,70.53
2019-02-25T07:11:43.253Z,70.63
2019-02-25T07:12:43.242Z,70.53
2019-02-25T07:13:43.243Z,70.50
2019-02-25T07:14:43.221Z,70.50
2019-02-25T07:15:43.211Z,70.60
2019-02-25T07:16:43.199Z,70.67
2019-02-25T07:17:43.188Z,70.50
2019-02-25T07:18:43.178Z,70.60
2019-02-25T07:19:43.177Z,70.46
2019-02-25T07:20:43.157Z,70.78
2019-02-25T07:21:43.146Z,69.81
2019-02-25T07:22:43.135Z,69.38
2019-02-25T07:23:43.126Z,68.63
2019-02-25T07:24:52.430Z,68.21
2019-02-25T07:25:44.116Z,67.97
2019-02-25T07:26:43.095Z,66.83
2019-02-25T07:27:43.088Z,66.48
2019-02-25T07:28:43.073Z,67.42
2019-02-25T07:29:43.062Z,66.97
2019-02-25T07:30:43.056Z,66.63
2019-02-25T07:31:43.059Z,65.90
2019-02-25T07:32:43.031Z,64.55
2019-02-25T07:33:43.020Z,64.21
2019-02-25T07:34:43.027Z,63.59
2019-02-25T07:35:43.000Z,63.66
2019-02-25T07:36:42.993Z,64.39
2019-02-25T07:37:42.995Z,63.84
2019-02-25T07:38:42.967Z,62.90
2019-02-25T07:39:42.957Z,62.36
2019-02-25T07:40:42.945Z,62.54
2019-02-25T07:41:42.935Z,61.40
2019-02-25T07:42:42.923Z,60.85
2019-02-25T07:43:42.928Z,59.91
2019-02-25T07:44:42.901Z,60.30
2019-02-25T07:45:42.890Z,60.20
2019-02-25T07:46:42.881Z,60.20
2019-02-25T07:47:42.872Z,59.34
2019-02-25T07:48:42.858Z,59.11
2019-02-25T07:49:42.863Z,57.66
2019-02-25T07:50:47.128Z,57.12
2019-02-25T07:51:42.826Z,56.81
2019-02-25T07:52:42.814Z,55.87
2019-02-25T07:53:42.805Z,55.98
2019-02-25T07:54:42.794Z,55.02
2019-02-25T07:55:42.796Z,55.54
2019-02-25T07:56:42.773Z,55.30
2019-02-25T07:57:42.762Z,54.58
2019-02-25T07:58:42.750Z,54.79
2019-02-25T07:59:42.747Z,55.49
2019-02-25T08:00:42.728Z,53.52
2019-02-25T08:01:42.729Z,53.70
2019-02-25T08:02:42.706Z,53.19
2019-02-25T08:03:42.696Z,52.67
2019-02-25T08:04:42.684Z,52.78
2019-02-25T08:05:42.674Z,54.12
2019-02-25T08:06:42.663Z,53.78
2019-02-25T08:07:42.663Z,53.16
2019-02-25T08:08:42.643Z,53.66
2019-02-25T08:09:42.630Z,53.24
2019-02-25T08:10:42.619Z,52.52
2019-02-25T08:11:42.613Z,51.39
2019-02-25T08:12:42.598Z,51.39
2019-02-25T08:13:42.599Z,53.53
2019-02-25T08:14:42.576Z,51.15
2019-02-25T08:15:42.566Z,50.54
2019-02-25T08:16:42.554Z,50.10
2019-02-25T08:17:42.545Z,49.09
2019-02-25T08:18:42.548Z,50.33
2019-02-25T08:19:42.532Z,50.74
2019-02-25T08:20:42.512Z,51.46
2019-02-25T08:21:42.501Z,52.73
2019-02-25T08:22:42.491Z,51.49
2019-02-25T08:23:42.480Z,52.08
2019-02-25T08:24:42.472Z,50.43
2019-02-25T08:25:42.470Z,51.07
2019-02-25T08:26:42.446Z,51.28
2019-02-25T08:27:42.436Z,52.65
2019-02-25T08:28:42.424Z,51.72
2019-02-25T08:29:42.414Z,52.44
2019-02-25T08:30:42.403Z,52.52
2019-02-25T08:31:42.406Z,52.52
2019-02-25T08:32:42.381Z,52.83
2019-02-25T08:33:42.373Z,52.39
2019-02-25T08:34:42.360Z,52.29
2019-02-25T08:35:42.348Z,53.14
2019-02-25T08:36:42.336Z,52.60
2019-02-25T08:37:42.336Z,52.60
2019-02-25T08:38:42.315Z,51.75
2019-02-25T08:39:42.303Z,52.06
2019-02-25T08:40:42.293Z,51.95
2019-02-25T08:41:42.282Z,51.13
2019-02-25T08:42:42.271Z,51.44
2019-02-25T08:43:42.274Z,51.34
2019-02-25T08:44:42.252Z,52.26
2019-02-25T08:45:42.238Z,51.52
2019-02-25T08:46:42.232Z,50.05
2019-02-25T08:47:42.223Z,49.33
2019-02-25T08:48:42.208Z,49.41
2019-02-25T08:49:42.208Z,49.62
2019-02-25T08:50:42.185Z,49.21
2019-02-25T08:51:42.174Z,49.21
2019-02-25T08:52:42.175Z,48.90
2019-02-25T08:53:42.154Z,49.29
2019-02-25T08:54:42.147Z,48.88
2019-02-25T08:55:42.157Z,49.08
2019-02-25T08:56:42.121Z,49.47
2019-02-25T08:57:42.110Z,48.54
2019-02-25T08:58:42.807Z,49.57
2019-02-25T08:59:42.087Z,49.16
2019-02-25T09:00:42.076Z,49.16
2019-02-25T09:01:42.079Z,49.26
2019-02-25T09:02:42.054Z,49.96
2019-02-25T09:03:42.043Z,49.44
2019-02-25T09:04:42.032Z,48.52
2019-02-25T09:05:42.021Z,48.21
2019-02-25T09:06:42.010Z,47.37
2019-02-25T09:07:42.772Z,48.19
2019-02-25T09:08:41.988Z,47.99
2019-02-25T09:09:41.988Z,48.17
2019-02-25T09:10:41.965Z,48.46
2019-02-25T09:11:41.982Z,47.41
2019-02-25T09:12:41.944Z,46.61
2019-02-25T09:13:41.943Z,46.28
2019-02-25T09:14:41.925Z,46.69
2019-02-25T09:15:41.912Z,46.58
2019-02-25T09:16:41.901Z,46.46
2019-02-25T09:17:41.891Z,46.67
2019-02-25T09:18:41.880Z,46.67
2019-02-25T09:19:41.882Z,46.85
2019-02-25T09:20:41.859Z,46.23
2019-02-25T09:21:41.851Z,47.00
2019-02-25T09:22:41.837Z,47.02
2019-02-25T09:23:41.826Z,47.33
2019-02-25T09:24:41.814Z,48.79
2019-02-25T09:25:41.816Z,49.09
2019-02-25T09:26:41.793Z,48.79
2019-02-25T09:27:41.792Z,48.66
2019-02-25T09:28:41.771Z,46.20
2019-02-25T09:29:41.761Z,47.14
2019-02-25T09:30:41.750Z,46.62
2019-02-25T09:31:41.765Z,47.96
2019-02-25T09:32:41.730Z,48.76
2019-02-25T09:33:41.726Z,47.00
2019-02-25T09:34:41.708Z,47.42
2019-02-25T09:35:41.698Z,46.40
2019-02-25T09:36:41.687Z,47.33
2019-02-25T09:37:41.687Z,47.22
2019-02-25T09:38:41.665Z,47.12
2019-02-25T09:39:41.653Z,47.63
2019-02-25T09:40:41.643Z,47.30
2019-02-25T09:41:41.632Z,47.28
2019-02-25T09:42:41.622Z,46.05
2019-02-25T09:43:41.629Z,47.26
2019-02-25T09:44:41.601Z,46.72
2019-02-25T09:45:41.589Z,46.31
2019-02-25T09:46:41.580Z,46.50
2019-02-25T09:47:41.569Z,45.89
2019-02-25T09:48:41.558Z,46.50
2019-02-25T09:49:41.557Z,45.98
2019-02-25T09:50:41.536Z,45.47
2019-02-25T09:51:41.524Z,44.35
2019-02-25T09:52:41.515Z,44.73
2019-02-25T09:53:41.505Z,44.32
2019-02-25T09:54:41.494Z,44.53
2019-02-25T09:55:41.495Z,42.28
2019-02-25T09:56:41.475Z,43.20
2019-02-25T09:57:41.462Z,41.07
2019-02-25T09:58:41.450Z,41.68
2019-02-25T09:59:41.441Z,43.12
2019-02-25T10:00:41.429Z,44.02
2019-02-25T10:01:41.433Z,44.32
2019-02-25T10:02:41.408Z,43.91
2019-02-25T10:03:41.396Z,43.69
2019-02-25T10:04:41.392Z,42.77
2019-02-25T10:05:41.375Z,42.87
2019-02-25T10:06:41.366Z,42.67
2019-02-25T10:07:41.366Z,41.75
2019-02-25T10:08:41.342Z,41.24
2019-02-25T10:09:41.333Z,39.29
2019-02-25T10:10:41.321Z,41.13
2019-02-25T10:11:41.313Z,41.01
2019-02-25T10:12:41.300Z,40.70
2019-02-25T10:13:41.298Z,39.99
2019-02-25T10:14:41.277Z,39.58
2019-02-25T10:15:41.266Z,39.99
2019-02-25T10:16:41.255Z,40.08
2019-02-25T10:17:41.245Z,40.28
2019-02-25T10:18:41.234Z,39.97
2019-02-25T10:19:41.234Z,40.17
2019-02-25T10:20:41.211Z,39.76
2019-02-25T10:21:41.202Z,40.19
2019-02-25T10:22:41.189Z,40.48
2019-02-25T10:23:41.187Z,40.48
2019-02-25T10:24:41.167Z,40.28
2019-02-25T10:25:41.174Z,42.12
2019-02-25T10:26:41.146Z,41.81
2019-02-25T10:27:41.134Z,41.91
2019-02-25T10:28:41.123Z,43.14
2019-02-25T10:29:41.113Z,41.69
2019-02-25T10:30:41.101Z,41.89
2019-02-25T10:31:41.708Z,40.99
2019-02-25T10:32:41.079Z,41.89
2019-02-25T10:33:41.068Z,42.91
2019-02-25T10:34:41.057Z,41.79
2019-02-25T10:35:41.054Z,42.08
2019-02-25T10:36:41.034Z,40.85
2019-02-25T10:37:41.471Z,41.06
2019-02-25T10:38:41.013Z,41.26
2019-02-25T10:39:41.658Z,42.38
2019-02-25T10:40:41.008Z,41.24
2019-02-25T10:41:40.980Z,40.14
2019-02-25T10:42:40.969Z,39.51
2019-02-25T10:43:40.971Z,38.89
2019-02-25T10:44:40.948Z,38.89
2019-02-25T10:45:41.565Z,37.87
2019-02-25T10:46:42.848Z,38.39
2019-02-25T10:47:42.007Z,39.20
2019-02-25T10:48:40.904Z,38.48
2019-02-25T10:49:40.906Z,39.71
2019-02-25T10:50:41.026Z,40.12
2019-02-25T10:51:41.726Z,39.51
2019-02-25T10:52:42.836Z,39.40
2019-02-25T10:53:40.850Z,38.37
2019-02-25T10:54:40.839Z,37.04
2019-02-25T10:55:44.533Z,38.78
2019-02-25T10:56:41.818Z,38.26
2019-02-25T10:57:40.808Z,38.78
2019-02-25T10:58:40.797Z,37.12
2019-02-25T10:59:41.485Z,35.80
2019-02-25T11:00:41.645Z,35.39
2019-02-25T11:01:41.430Z,35.69
2019-02-25T11:02:44.194Z,36.10
2019-02-25T11:03:40.743Z,37.01
2019-02-25T11:04:40.733Z,34.58
2019-02-25T11:05:40.722Z,34.25
2019-02-25T11:06:40.712Z,34.76
2019-02-25T11:07:42.030Z,34.56
2019-02-25T11:08:41.484Z,35.58
2019-02-25T11:09:42.043Z,36.60
2019-02-25T11:10:40.669Z,35.37
2019-02-25T11:11:40.658Z,34.56
2019-02-25T11:12:40.650Z,35.17
2019-02-25T11:13:40.653Z,35.77
2019-02-25T11:14:41.766Z,37.21
2019-02-25T11:15:42.409Z,35.78
2019-02-25T11:16:41.930Z,35.15
2019-02-25T11:17:40.596Z,34.44
2019-02-25T11:18:40.712Z,34.34
2019-02-25T11:19:40.584Z,34.54
2019-02-25T11:20:40.566Z,34.95
2019-02-25T11:21:42.166Z,35.86
2019-02-25T11:22:42.392Z,35.97
2019-02-25T11:23:40.529Z,33.83
2019-02-25T11:24:40.516Z,34.23
2019-02-25T11:25:40.521Z,34.03
2019-02-25T11:26:40.496Z,34.23
2019-02-25T11:27:40.488Z,35.03
2019-02-25T11:28:41.239Z,34.63
2019-02-25T11:29:42.033Z,33.81
2019-02-25T11:30:40.453Z,33.42
2019-02-25T11:31:40.456Z,33.20
2019-02-25T11:32:40.430Z,33.40
2019-02-25T11:33:40.419Z,33.00
2019-02-25T11:34:40.408Z,33.10
2019-02-25T11:35:41.106Z,32.78
2019-02-25T11:36:40.386Z,32.57
2019-02-25T11:37:40.385Z,31.96
2019-02-25T11:38:40.364Z,32.47
2019-02-25T11:39:40.352Z,33.08
2019-02-25T11:40:40.342Z,32.78
2019-02-25T11:41:41.083Z,31.46
2019-02-25T11:42:40.331Z,32.27
2019-02-25T11:43:40.328Z,31.96
2019-02-25T11:44:40.298Z,30.84
2019-02-25T11:45:40.286Z,29.42
2019-02-25T11:46:40.275Z,31.15
2019-02-25T11:47:40.265Z,30.74
2019-02-25T11:48:40.253Z,30.74
2019-02-25T11:49:40.252Z,31.15
2019-02-25T11:50:40.231Z,31.96
2019-02-25T11:51:40.221Z,30.11
2019-02-25T11:52:40.208Z,30.44
2019-02-25T11:53:40.197Z,29.71
2019-02-25T11:54:40.187Z,31.34
2019-02-25T11:55:40.188Z,30.83
2019-02-25T11:56:40.165Z,30.32
2019-02-25T11:57:40.153Z,30.42
2019-02-25T11:58:40.143Z,30.10
2019-02-25T11:59:40.132Z,29.50
2019-02-25T12:00:40.120Z,29.90
2019-02-25T12:01:40.123Z,29.00
2019-02-25T12:02:40.099Z,29.69
2019-02-25T12:03:40.088Z,27.86
2019-02-25T12:04:40.163Z,27.58
2019-02-25T12:05:40.095Z,26.44
2019-02-25T12:06:40.055Z,26.25
2019-02-25T12:07:40.082Z,26.14
2019-02-25T12:08:40.034Z,26.44
2019-02-25T12:09:40.023Z,27.05
2019-02-25T12:10:40.013Z,28.27
2019-02-25T12:11:40.002Z,26.34
2019-02-25T12:12:39.989Z,26.73
2019-02-25T12:13:39.989Z,26.75
2019-02-25T12:14:39.968Z,26.53
2019-02-25T12:15:39.956Z,26.23
2019-02-25T12:16:39.946Z,26.43
2019-02-25T12:17:39.934Z,26.12
2019-02-25T12:18:39.924Z,25.92
2019-02-25T12:19:39.924Z,26.53
2019-02-25T12:20:39.903Z,27.95
2019-02-25T12:21:39.892Z,27.75
2019-02-25T12:22:39.882Z,27.23
2019-02-25T12:23:39.873Z,26.93
2019-02-25T12:24:39.860Z,26.23
2019-02-25T12:25:39.859Z,28.04
2019-02-25T12:26:39.839Z,26.92
2019-02-25T12:27:39.828Z,26.72
2019-02-25T12:28:39.817Z,26.20
2019-02-25T12:29:39.893Z,26.81
2019-02-25T12:30:39.796Z,27.42
2019-02-25T12:31:39.803Z,27.71
2019-02-25T12:32:39.775Z,26.39
2019-02-25T12:33:39.765Z,26.90
2019-02-25T12:34:39.753Z,27.00
2019-02-25T12:35:39.743Z,27.10
2019-02-25T12:36:39.733Z,27.40
2019-02-25T12:37:39.738Z,26.59
2019-02-25T12:38:39.711Z,27.31
2019-02-25T12:39:39.701Z,28.02
2019-02-25T12:40:39.690Z,28.02
2019-02-25T12:41:39.682Z,26.80
2019-02-25T12:42:39.668Z,27.40
2019-02-25T12:43:39.672Z,26.39
2019-02-25T12:44:39.649Z,26.59
2019-02-25T12:45:39.638Z,28.12
2019-02-25T12:46:39.625Z,28.02
2019-02-25T12:47:39.615Z,26.91
2019-02-25T12:48:39.604Z,25.07
2019-02-25T12:49:39.603Z,25.59
2019-02-25T12:50:39.583Z,25.89
2019-02-25T12:51:39.572Z,26.59
2019-02-25T12:52:39.561Z,27.40